sensor_id;sensor_type;location;lat;lon;timestamp;P1;durP1;ratioP1;P2;durP2;ratioP2
52284;SDS011;38238;53.304;6.606;2022-12-07T00:01:31;22.83;;;21.33;;
52284;SDS011;38238;53.304;6.606;2022-12-07T00:03:59;25.83;;;24.27;;
52284;SDS011;38238;53.304;6.606;2022-12-07T00:06:30;28.35;;;25.60;;
52284;SDS011;38238;53.304;6.606;2022-12-07T00:08:56;27.50;;;26.02;;
52284;SDS011;38238;53.304;6.606;2022-12-07T00:11:22;27.02;;;25.35;;
52284;SDS011;38238;53.304;6.606;2022-12-07T00:13:53;25.17;;;23.70;;
52284;SDS011;38238;53.304;6.606;2022-12-07T00:16:20;26.27;;;24.98;;
52284;SDS011;38238;53.304;6.606;2022-12-07T00:18:48;27.40;;;26.02;;
52284;SDS011;38238;53.304;6.606;2022-12-07T00:24:00;29.23;;;27.42;;
52284;SDS011;38238;53.304;6.606;2022-12-07T00:26:27;29.27;;;27.38;;
52284;SDS011;38238;53.304;6.606;2022-12-07T00:28:56;25.90;;;24.42;;
52284;SDS011;38238;53.304;6.606;2022-12-07T00:31:25;25.33;;;23.92;;
52284;SDS011;38238;53.304;6.606;2022-12-07T00:33:52;28.20;;;26.50;;
52284;SDS011;38238;53.304;6.606;2022-12-07T00:36:19;27.95;;;26.60;;
52284;SDS011;38238;53.304;6.606;2022-12-07T00:38:46;28.90;;;27.10;;
52284;SDS011;38238;53.304;6.606;2022-12-07T00:41:15;26.63;;;25.05;;
52284;SDS011;38238;53.304;6.606;2022-12-07T00:43:43;30.65;;;28.23;;
52284;SDS011;38238;53.304;6.606;2022-12-07T00:46:10;27.50;;;25.73;;
52284;SDS011;38238;53.304;6.606;2022-12-07T00:48:36;23.35;;;21.85;;
52284;SDS011;38238;53.304;6.606;2022-12-07T00:51:02;21.48;;;19.83;;
52284;SDS011;38238;53.304;6.606;2022-12-07T00:53:29;20.60;;;18.60;;
52284;SDS011;38238;53.304;6.606;2022-12-07T00:55:55;17.33;;;15.88;;
52284;SDS011;38238;53.304;6.606;2022-12-07T00:58:22;15.90;;;14.45;;
52284;SDS011;38238;53.304;6.606;2022-12-07T01:00:48;15.60;;;14.10;;
52284;SDS011;38238;53.304;6.606;2022-12-07T01:03:14;16.10;;;14.88;;
52284;SDS011;38238;53.304;6.606;2022-12-07T01:05:48;16.67;;;15.55;;
52284;SDS011;38238;53.304;6.606;2022-12-07T01:08:16;18.23;;;16.55;;
52284;SDS011;38238;53.304;6.606;2022-12-07T01:10:41;16.70;;;15.35;;
52284;SDS011;38238;53.304;6.606;2022-12-07T01:13:07;20.48;;;19.13;;
52284;SDS011;38238;53.304;6.606;2022-12-07T01:15:33;22.67;;;21.33;;
52284;SDS011;38238;53.304;6.606;2022-12-07T01:17:58;26.23;;;24.83;;
52284;SDS011;38238;53.304;6.606;2022-12-07T01:20:24;24.83;;;23.38;;
52284;SDS011;38238;53.304;6.606;2022-12-07T01:22:50;28.02;;;26.15;;
52284;SDS011;38238;53.304;6.606;2022-12-07T01:25:15;25.35;;;23.95;;
52284;SDS011;38238;53.304;6.606;2022-12-07T01:27:41;26.30;;;24.90;;
52284;SDS011;38238;53.304;6.606;2022-12-07T01:30:07;26.75;;;25.52;;
52284;SDS011;38238;53.304;6.606;2022-12-07T01:32:34;29.80;;;28.20;;
52284;SDS011;38238;53.304;6.606;2022-12-07T01:35:00;23.40;;;21.77;;
52284;SDS011;38238;53.304;6.606;2022-12-07T01:37:26;26.58;;;25.27;;
52284;SDS011;38238;53.304;6.606;2022-12-07T01:39:51;26.88;;;25.65;;
52284;SDS011;38238;53.304;6.606;2022-12-07T01:42:17;25.48;;;24.00;;
52284;SDS011;38238;53.304;6.606;2022-12-07T01:47:41;19.65;;;18.45;;
52284;SDS011;38238;53.304;6.606;2022-12-07T01:50:07;17.30;;;16.08;;
52284;SDS011;38238;53.304;6.606;2022-12-07T01:52:34;15.15;;;14.07;;
52284;SDS011;38238;53.304;6.606;2022-12-07T01:55:03;15.43;;;14.48;;
52284;SDS011;38238;53.304;6.606;2022-12-07T01:57:33;16.60;;;15.40;;
52284;SDS011;38238;53.304;6.606;2022-12-07T02:00:03;19.45;;;18.45;;
52284;SDS011;38238;53.304;6.606;2022-12-07T02:02:32;19.27;;;18.33;;
52284;SDS011;38238;53.304;6.606;2022-12-07T02:05:01;21.95;;;20.27;;
52284;SDS011;38238;53.304;6.606;2022-12-07T02:07:29;22.70;;;21.30;;
52284;SDS011;38238;53.304;6.606;2022-12-07T02:09:57;26.08;;;24.88;;
52284;SDS011;38238;53.304;6.606;2022-12-07T02:12:40;23.63;;;22.45;;
52284;SDS011;38238;53.304;6.606;2022-12-07T02:15:07;25.48;;;24.40;;
52284;SDS011;38238;53.304;6.606;2022-12-07T02:20:28;25.75;;;24.42;;
52284;SDS011;38238;53.304;6.606;2022-12-07T02:31:31;21.52;;;20.33;;
52284;SDS011;38238;53.304;6.606;2022-12-07T02:34:02;20.95;;;19.80;;
52284;SDS011;38238;53.304;6.606;2022-12-07T02:36:32;25.60;;;24.23;;
52284;SDS011;38238;53.304;6.606;2022-12-07T02:39:15;23.70;;;22.40;;
52284;SDS011;38238;53.304;6.606;2022-12-07T02:41:55;20.27;;;19.08;;
52284;SDS011;38238;53.304;6.606;2022-12-07T02:44:27;18.27;;;17.08;;
52284;SDS011;38238;53.304;6.606;2022-12-07T02:47:03;20.70;;;19.52;;
52284;SDS011;38238;53.304;6.606;2022-12-07T02:51:58;21.17;;;19.93;;
52284;SDS011;38238;53.304;6.606;2022-12-07T02:54:23;19.70;;;18.40;;
52284;SDS011;38238;53.304;6.606;2022-12-07T03:04:52;19.48;;;17.80;;
52284;SDS011;38238;53.304;6.606;2022-12-07T03:07:26;17.63;;;16.40;;
52284;SDS011;38238;53.304;6.606;2022-12-07T03:10:14;15.20;;;13.80;;
52284;SDS011;38238;53.304;6.606;2022-12-07T03:15:46;13.57;;;12.48;;
52284;SDS011;38238;53.304;6.606;2022-12-07T03:18:33;16.02;;;14.73;;
52284;SDS011;38238;53.304;6.606;2022-12-07T03:21:04;16.23;;;15.13;;
52284;SDS011;38238;53.304;6.606;2022-12-07T03:23:35;17.15;;;16.05;;
52284;SDS011;38238;53.304;6.606;2022-12-07T03:26:03;18.42;;;16.95;;
52284;SDS011;38238;53.304;6.606;2022-12-07T03:28:33;17.38;;;15.82;;
52284;SDS011;38238;53.304;6.606;2022-12-07T03:31:17;18.67;;;17.42;;
52284;SDS011;38238;53.304;6.606;2022-12-07T03:36:32;19.52;;;18.13;;
52284;SDS011;38238;53.304;6.606;2022-12-07T03:39:07;18.95;;;17.52;;
52284;SDS011;38238;53.304;6.606;2022-12-07T03:41:38;18.75;;;17.73;;
52284;SDS011;38238;53.304;6.606;2022-12-07T03:44:04;20.58;;;19.48;;
52284;SDS011;38238;53.304;6.606;2022-12-07T03:46:36;19.88;;;18.90;;
52284;SDS011;38238;53.304;6.606;2022-12-07T03:49:18;18.52;;;17.48;;
52284;SDS011;38238;53.304;6.606;2022-12-07T03:54:30;21.50;;;20.30;;
52284;SDS011;38238;53.304;6.606;2022-12-07T03:57:03;21.77;;;20.67;;
52284;SDS011;38238;53.304;6.606;2022-12-07T03:59:30;24.30;;;23.13;;
52284;SDS011;38238;53.304;6.606;2022-12-07T04:01:58;25.25;;;23.65;;
52284;SDS011;38238;53.304;6.606;2022-12-07T04:04:28;27.33;;;25.98;;
52284;SDS011;38238;53.304;6.606;2022-12-07T04:06:54;25.15;;;23.15;;
52284;SDS011;38238;53.304;6.606;2022-12-07T04:09:19;25.65;;;24.40;;
52284;SDS011;38238;53.304;6.606;2022-12-07T04:11:45;26.85;;;25.35;;
52284;SDS011;38238;53.304;6.606;2022-12-07T04:14:12;27.08;;;25.45;;
52284;SDS011;38238;53.304;6.606;2022-12-07T04:16:43;27.73;;;26.13;;
52284;SDS011;38238;53.304;6.606;2022-12-07T04:19:12;28.45;;;26.90;;
52284;SDS011;38238;53.304;6.606;2022-12-07T04:21:39;26.75;;;25.58;;
52284;SDS011;38238;53.304;6.606;2022-12-07T04:24:04;23.88;;;22.67;;
52284;SDS011;38238;53.304;6.606;2022-12-07T04:26:30;27.38;;;25.92;;
52284;SDS011;38238;53.304;6.606;2022-12-07T04:28:56;29.60;;;28.23;;
52284;SDS011;38238;53.304;6.606;2022-12-07T04:31:22;25.15;;;23.52;;
52284;SDS011;38238;53.304;6.606;2022-12-07T04:33:47;22.25;;;21.05;;
52284;SDS011;38238;53.304;6.606;2022-12-07T04:36:13;18.40;;;17.02;;
52284;SDS011;38238;53.304;6.606;2022-12-07T04:38:39;17.30;;;16.23;;
52284;SDS011;38238;53.304;6.606;2022-12-07T04:41:05;17.92;;;16.60;;
52284;SDS011;38238;53.304;6.606;2022-12-07T04:43:31;20.30;;;19.20;;
52284;SDS011;38238;53.304;6.606;2022-12-07T04:45:58;24.35;;;23.15;;
52284;SDS011;38238;53.304;6.606;2022-12-07T04:48:23;25.73;;;24.05;;
52284;SDS011;38238;53.304;6.606;2022-12-07T04:50:49;22.23;;;20.83;;
52284;SDS011;38238;53.304;6.606;2022-12-07T04:53:15;22.55;;;21.45;;
52284;SDS011;38238;53.304;6.606;2022-12-07T04:55:40;22.83;;;21.55;;
52284;SDS011;38238;53.304;6.606;2022-12-07T04:58:06;24.30;;;23.00;;
52284;SDS011;38238;53.304;6.606;2022-12-07T05:00:32;23.25;;;21.98;;
52284;SDS011;38238;53.304;6.606;2022-12-07T05:02:58;22.98;;;21.55;;
52284;SDS011;38238;53.304;6.606;2022-12-07T05:05:24;23.77;;;22.38;;
52284;SDS011;38238;53.304;6.606;2022-12-07T05:07:50;21.23;;;20.08;;
52284;SDS011;38238;53.304;6.606;2022-12-07T05:10:15;21.67;;;20.33;;
52284;SDS011;38238;53.304;6.606;2022-12-07T05:12:41;25.05;;;23.65;;
52284;SDS011;38238;53.304;6.606;2022-12-07T05:15:07;27.20;;;26.00;;
52284;SDS011;38238;53.304;6.606;2022-12-07T05:17:33;28.73;;;26.73;;
52284;SDS011;38238;53.304;6.606;2022-12-07T05:19:59;27.50;;;26.08;;
52284;SDS011;38238;53.304;6.606;2022-12-07T05:22:25;26.63;;;25.23;;
52284;SDS011;38238;53.304;6.606;2022-12-07T05:24:54;24.85;;;23.17;;
52284;SDS011;38238;53.304;6.606;2022-12-07T05:27:20;20.88;;;19.98;;
52284;SDS011;38238;53.304;6.606;2022-12-07T05:29:45;18.88;;;18.08;;
52284;SDS011;38238;53.304;6.606;2022-12-07T05:32:11;14.23;;;13.18;;
52284;SDS011;38238;53.304;6.606;2022-12-07T05:34:37;17.13;;;16.13;;
52284;SDS011;38238;53.304;6.606;2022-12-07T05:37:05;13.55;;;12.52;;
52284;SDS011;38238;53.304;6.606;2022-12-07T05:39:31;13.43;;;12.20;;
52284;SDS011;38238;53.304;6.606;2022-12-07T05:41:57;15.52;;;14.18;;
52284;SDS011;38238;53.304;6.606;2022-12-07T05:44:41;12.93;;;12.00;;
52284;SDS011;38238;53.304;6.606;2022-12-07T05:47:09;15.38;;;14.25;;
52284;SDS011;38238;53.304;6.606;2022-12-07T05:49:35;17.50;;;16.27;;
52284;SDS011;38238;53.304;6.606;2022-12-07T05:52:00;14.55;;;13.50;;
52284;SDS011;38238;53.304;6.606;2022-12-07T05:54:26;12.75;;;11.90;;
52284;SDS011;38238;53.304;6.606;2022-12-07T05:56:52;12.68;;;11.63;;
52284;SDS011;38238;53.304;6.606;2022-12-07T05:59:18;12.38;;;11.15;;
52284;SDS011;38238;53.304;6.606;2022-12-07T06:02:14;12.02;;;11.13;;
52284;SDS011;38238;53.304;6.606;2022-12-07T06:04:43;17.80;;;16.48;;
52284;SDS011;38238;53.304;6.606;2022-12-07T06:07:11;19.30;;;17.88;;
52284;SDS011;38238;53.304;6.606;2022-12-07T06:09:39;19.88;;;18.42;;
52284;SDS011;38238;53.304;6.606;2022-12-07T06:12:05;16.30;;;14.93;;
52284;SDS011;38238;53.304;6.606;2022-12-07T06:14:50;22.67;;;21.02;;
52284;SDS011;38238;53.304;6.606;2022-12-07T06:17:15;23.58;;;21.90;;
52284;SDS011;38238;53.304;6.606;2022-12-07T06:19:41;22.15;;;20.83;;
52284;SDS011;38238;53.304;6.606;2022-12-07T06:22:08;21.98;;;20.45;;
52284;SDS011;38238;53.304;6.606;2022-12-07T06:24:35;22.17;;;21.08;;
52284;SDS011;38238;53.304;6.606;2022-12-07T06:27:01;21.67;;;20.48;;
52284;SDS011;38238;53.304;6.606;2022-12-07T06:29:27;24.40;;;22.98;;
52284;SDS011;38238;53.304;6.606;2022-12-07T06:31:53;23.55;;;22.30;;
52284;SDS011;38238;53.304;6.606;2022-12-07T06:34:19;18.85;;;17.33;;
52284;SDS011;38238;53.304;6.606;2022-12-07T06:36:48;19.92;;;18.73;;
52284;SDS011;38238;53.304;6.606;2022-12-07T06:39:20;23.20;;;22.02;;
52284;SDS011;38238;53.304;6.606;2022-12-07T06:41:47;21.35;;;20.17;;
52284;SDS011;38238;53.304;6.606;2022-12-07T06:44:13;21.50;;;20.35;;
52284;SDS011;38238;53.304;6.606;2022-12-07T06:46:39;22.50;;;21.27;;
52284;SDS011;38238;53.304;6.606;2022-12-07T06:49:05;18.65;;;17.65;;
52284;SDS011;38238;53.304;6.606;2022-12-07T06:51:32;20.90;;;19.80;;
52284;SDS011;38238;53.304;6.606;2022-12-07T06:53:57;18.00;;;16.95;;
52284;SDS011;38238;53.304;6.606;2022-12-07T06:56:23;16.20;;;15.20;;
52284;SDS011;38238;53.304;6.606;2022-12-07T06:58:49;18.10;;;17.13;;
52284;SDS011;38238;53.304;6.606;2022-12-07T07:01:16;18.90;;;17.88;;
52284;SDS011;38238;53.304;6.606;2022-12-07T07:03:43;18.50;;;17.35;;
52284;SDS011;38238;53.304;6.606;2022-12-07T07:06:09;17.48;;;16.02;;
52284;SDS011;38238;53.304;6.606;2022-12-07T07:08:36;22.20;;;20.30;;
52284;SDS011;38238;53.304;6.606;2022-12-07T07:11:03;19.83;;;18.55;;
52284;SDS011;38238;53.304;6.606;2022-12-07T07:13:30;19.67;;;18.33;;
52284;SDS011;38238;53.304;6.606;2022-12-07T07:15:56;23.00;;;21.80;;
52284;SDS011;38238;53.304;6.606;2022-12-07T07:18:22;22.52;;;21.27;;
52284;SDS011;38238;53.304;6.606;2022-12-07T07:20:48;23.77;;;22.48;;
52284;SDS011;38238;53.304;6.606;2022-12-07T07:23:16;26.05;;;24.10;;
52284;SDS011;38238;53.304;6.606;2022-12-07T07:25:42;23.70;;;22.15;;
52284;SDS011;38238;53.304;6.606;2022-12-07T07:28:07;23.15;;;21.92;;
52284;SDS011;38238;53.304;6.606;2022-12-07T07:30:33;21.73;;;20.42;;
52284;SDS011;38238;53.304;6.606;2022-12-07T07:32:59;21.35;;;20.08;;
52284;SDS011;38238;53.304;6.606;2022-12-07T07:35:27;20.85;;;19.20;;
52284;SDS011;38238;53.304;6.606;2022-12-07T07:37:53;21.75;;;20.20;;
52284;SDS011;38238;53.304;6.606;2022-12-07T07:40:20;21.85;;;20.25;;
52284;SDS011;38238;53.304;6.606;2022-12-07T07:42:49;20.98;;;19.45;;
52284;SDS011;38238;53.304;6.606;2022-12-07T07:45:17;18.50;;;17.27;;
52284;SDS011;38238;53.304;6.606;2022-12-07T07:47:44;19.83;;;18.15;;
52284;SDS011;38238;53.304;6.606;2022-12-07T07:50:10;19.50;;;18.17;;
52284;SDS011;38238;53.304;6.606;2022-12-07T07:52:36;17.85;;;16.55;;
52284;SDS011;38238;53.304;6.606;2022-12-07T07:55:02;19.08;;;17.90;;
52284;SDS011;38238;53.304;6.606;2022-12-07T07:57:28;21.63;;;20.10;;
52284;SDS011;38238;53.304;6.606;2022-12-07T07:59:53;19.25;;;18.15;;
52284;SDS011;38238;53.304;6.606;2022-12-07T08:02:19;22.20;;;21.10;;
52284;SDS011;38238;53.304;6.606;2022-12-07T08:04:47;21.17;;;19.63;;
52284;SDS011;38238;53.304;6.606;2022-12-07T08:07:13;21.73;;;20.17;;
52284;SDS011;38238;53.304;6.606;2022-12-07T08:09:39;21.75;;;20.17;;
52284;SDS011;38238;53.304;6.606;2022-12-07T08:12:06;20.20;;;18.63;;
52284;SDS011;38238;53.304;6.606;2022-12-07T08:14:32;20.80;;;19.70;;
52284;SDS011;38238;53.304;6.606;2022-12-07T08:16:58;18.30;;;17.10;;
52284;SDS011;38238;53.304;6.606;2022-12-07T08:19:24;18.92;;;17.70;;
52284;SDS011;38238;53.304;6.606;2022-12-07T08:21:50;22.17;;;20.95;;
52284;SDS011;38238;53.304;6.606;2022-12-07T08:24:16;21.15;;;19.50;;
52284;SDS011;38238;53.304;6.606;2022-12-07T08:26:42;22.35;;;21.10;;
52284;SDS011;38238;53.304;6.606;2022-12-07T08:29:08;18.98;;;17.67;;
52284;SDS011;38238;53.304;6.606;2022-12-07T08:31:33;25.02;;;23.42;;
52284;SDS011;38238;53.304;6.606;2022-12-07T08:33:59;22.30;;;20.60;;
52284;SDS011;38238;53.304;6.606;2022-12-07T08:36:25;20.50;;;18.65;;
52284;SDS011;38238;53.304;6.606;2022-12-07T08:38:51;18.52;;;17.08;;
52284;SDS011;38238;53.304;6.606;2022-12-07T08:41:17;19.27;;;17.65;;
52284;SDS011;38238;53.304;6.606;2022-12-07T08:43:43;24.45;;;22.63;;
52284;SDS011;38238;53.304;6.606;2022-12-07T08:48:48;24.60;;;23.35;;
52284;SDS011;38238;53.304;6.606;2022-12-07T08:51:18;26.38;;;24.88;;
52284;SDS011;38238;53.304;6.606;2022-12-07T08:53:46;20.85;;;19.23;;
52284;SDS011;38238;53.304;6.606;2022-12-07T08:56:12;19.95;;;18.75;;
52284;SDS011;38238;53.304;6.606;2022-12-07T08:58:38;24.65;;;23.27;;
52284;SDS011;38238;53.304;6.606;2022-12-07T09:01:04;24.80;;;23.55;;
52284;SDS011;38238;53.304;6.606;2022-12-07T09:03:30;25.30;;;23.67;;
52284;SDS011;38238;53.304;6.606;2022-12-07T09:05:57;25.80;;;24.30;;
52284;SDS011;38238;53.304;6.606;2022-12-07T09:08:26;22.50;;;21.02;;
52284;SDS011;38238;53.304;6.606;2022-12-07T09:10:56;24.00;;;22.60;;
52284;SDS011;38238;53.304;6.606;2022-12-07T09:13:21;23.88;;;22.23;;
52284;SDS011;38238;53.304;6.606;2022-12-07T09:15:47;22.42;;;20.95;;
52284;SDS011;38238;53.304;6.606;2022-12-07T09:18:13;20.92;;;19.90;;
52284;SDS011;38238;53.304;6.606;2022-12-07T09:20:39;19.02;;;17.33;;
52284;SDS011;38238;53.304;6.606;2022-12-07T09:23:06;24.55;;;23.00;;
52284;SDS011;38238;53.304;6.606;2022-12-07T09:25:32;21.38;;;20.02;;
52284;SDS011;38238;53.304;6.606;2022-12-07T09:27:59;19.63;;;18.30;;
52284;SDS011;38238;53.304;6.606;2022-12-07T09:30:25;18.83;;;17.48;;
52284;SDS011;38238;53.304;6.606;2022-12-07T09:32:55;15.02;;;13.70;;
52284;SDS011;38238;53.304;6.606;2022-12-07T09:35:22;18.80;;;17.52;;
52284;SDS011;38238;53.304;6.606;2022-12-07T09:37:50;16.48;;;15.23;;
52284;SDS011;38238;53.304;6.606;2022-12-07T09:40:16;14.65;;;13.65;;
52284;SDS011;38238;53.304;6.606;2022-12-07T09:42:45;16.15;;;14.63;;
52284;SDS011;38238;53.304;6.606;2022-12-07T09:45:16;15.27;;;14.13;;
52284;SDS011;38238;53.304;6.606;2022-12-07T09:47:50;19.95;;;16.35;;
52284;SDS011;38238;53.304;6.606;2022-12-07T09:50:17;16.58;;;15.48;;
52284;SDS011;38238;53.304;6.606;2022-12-07T09:52:46;16.85;;;12.52;;
52284;SDS011;38238;53.304;6.606;2022-12-07T09:55:14;10.45;;;9.60;;
52284;SDS011;38238;53.304;6.606;2022-12-07T09:57:44;20.23;;;9.68;;
52284;SDS011;38238;53.304;6.606;2022-12-07T10:00:12;10.55;;;9.65;;
52284;SDS011;38238;53.304;6.606;2022-12-07T10:02:41;13.55;;;9.48;;
52284;SDS011;38238;53.304;6.606;2022-12-07T10:05:20;11.18;;;9.68;;
52284;SDS011;38238;53.304;6.606;2022-12-07T10:07:53;9.80;;;8.90;;
52284;SDS011;38238;53.304;6.606;2022-12-07T10:10:37;8.55;;;7.20;;
52284;SDS011;38238;53.304;6.606;2022-12-07T10:13:11;7.22;;;6.43;;
52284;SDS011;38238;53.304;6.606;2022-12-07T10:15:46;6.82;;;5.15;;
52284;SDS011;38238;53.304;6.606;2022-12-07T10:18:59;6.65;;;4.78;;
52284;SDS011;38238;53.304;6.606;2022-12-07T10:21:10;14.45;;;4.53;;
52284;SDS011;38238;53.304;6.606;2022-12-07T10:23:39;12.00;;;4.13;;
52284;SDS011;38238;53.304;6.606;2022-12-07T10:26:19;7.75;;;4.18;;
52284;SDS011;38238;53.304;6.606;2022-12-07T10:28:52;8.57;;;3.75;;
52284;SDS011;38238;53.304;6.606;2022-12-07T10:31:19;6.55;;;4.00;;
52284;SDS011;38238;53.304;6.606;2022-12-07T10:33:51;6.55;;;3.80;;
52284;SDS011;38238;53.304;6.606;2022-12-07T10:39:04;8.35;;;4.53;;
52284;SDS011;38238;53.304;6.606;2022-12-07T10:41:54;9.23;;;5.63;;
52284;SDS011;38238;53.304;6.606;2022-12-07T10:44:25;7.47;;;4.72;;
52284;SDS011;38238;53.304;6.606;2022-12-07T10:50:18;10.07;;;5.25;;
52284;SDS011;38238;53.304;6.606;2022-12-07T11:16:07;11.35;;;7.35;;
52284;SDS011;38238;53.304;6.606;2022-12-07T11:21:39;8.05;;;6.15;;
52284;SDS011;38238;53.304;6.606;2022-12-07T11:24:16;16.52;;;7.63;;
52284;SDS011;38238;53.304;6.606;2022-12-07T11:37:44;7.82;;;4.25;;
52284;SDS011;38238;53.304;6.606;2022-12-07T11:43:26;6.55;;;3.85;;
52284;SDS011;38238;53.304;6.606;2022-12-07T11:46:03;8.02;;;4.43;;
52284;SDS011;38238;53.304;6.606;2022-12-07T11:48:35;7.30;;;4.50;;
52284;SDS011;38238;53.304;6.606;2022-12-07T11:51:07;8.27;;;5.63;;
52284;SDS011;38238;53.304;6.606;2022-12-07T11:53:48;7.13;;;4.00;;
52284;SDS011;38238;53.304;6.606;2022-12-07T11:56:19;8.15;;;5.03;;
52284;SDS011;38238;53.304;6.606;2022-12-07T12:01:18;8.25;;;4.32;;
52284;SDS011;38238;53.304;6.606;2022-12-07T12:06:39;7.22;;;5.68;;
52284;SDS011;38238;53.304;6.606;2022-12-07T12:09:14;8.10;;;5.75;;
52284;SDS011;38238;53.304;6.606;2022-12-07T12:11:48;5.32;;;4.05;;
52284;SDS011;38238;53.304;6.606;2022-12-07T12:17:41;6.50;;;5.13;;
52284;SDS011;38238;53.304;6.606;2022-12-07T12:23:19;8.23;;;4.82;;
52284;SDS011;38238;53.304;6.606;2022-12-07T12:25:59;6.53;;;4.80;;
52284;SDS011;38238;53.304;6.606;2022-12-07T12:28:29;5.82;;;4.95;;
52284;SDS011;38238;53.304;6.606;2022-12-07T12:33:53;10.65;;;7.07;;
52284;SDS011;38238;53.304;6.606;2022-12-07T12:37:07;7.78;;;4.63;;
52284;SDS011;38238;53.304;6.606;2022-12-07T12:39:16;8.57;;;5.57;;
52284;SDS011;38238;53.304;6.606;2022-12-07T12:47:04;6.05;;;4.43;;
52284;SDS011;38238;53.304;6.606;2022-12-07T12:50:35;6.18;;;5.25;;
52284;SDS011;38238;53.304;6.606;2022-12-07T12:57:33;5.95;;;4.55;;
52284;SDS011;38238;53.304;6.606;2022-12-07T13:00:19;6.22;;;5.18;;
52284;SDS011;38238;53.304;6.606;2022-12-07T13:02:47;8.02;;;6.43;;
52284;SDS011;38238;53.304;6.606;2022-12-07T13:05:21;5.78;;;5.28;;
52284;SDS011;38238;53.304;6.606;2022-12-07T13:07:51;6.20;;;5.38;;
52284;SDS011;38238;53.304;6.606;2022-12-07T13:13:39;7.75;;;6.25;;
52284;SDS011;38238;53.304;6.606;2022-12-07T13:29:18;10.85;;;6.30;;
52284;SDS011;38238;53.304;6.606;2022-12-07T13:31:52;7.18;;;5.75;;
52284;SDS011;38238;53.304;6.606;2022-12-07T13:34:38;8.98;;;8.20;;
52284;SDS011;38238;53.304;6.606;2022-12-07T13:39:54;9.77;;;8.87;;
52284;SDS011;38238;53.304;6.606;2022-12-07T13:42:27;10.40;;;9.43;;
52284;SDS011;38238;53.304;6.606;2022-12-07T13:44:58;9.88;;;8.98;;
52284;SDS011;38238;53.304;6.606;2022-12-07T13:49:57;9.20;;;8.43;;
52284;SDS011;38238;53.304;6.606;2022-12-07T13:52:24;8.73;;;7.90;;
52284;SDS011;38238;53.304;6.606;2022-12-07T13:55:01;8.68;;;8.10;;
52284;SDS011;38238;53.304;6.606;2022-12-07T13:57:27;10.55;;;9.60;;
52284;SDS011;38238;53.304;6.606;2022-12-07T13:59:59;9.30;;;8.50;;
52284;SDS011;38238;53.304;6.606;2022-12-07T14:02:33;9.25;;;8.68;;
52284;SDS011;38238;53.304;6.606;2022-12-07T14:08:21;8.98;;;8.32;;
52284;SDS011;38238;53.304;6.606;2022-12-07T14:10:36;8.18;;;7.47;;
52284;SDS011;38238;53.304;6.606;2022-12-07T14:13:33;10.02;;;9.18;;
52284;SDS011;38238;53.304;6.606;2022-12-07T14:16:20;10.88;;;9.65;;
52284;SDS011;38238;53.304;6.606;2022-12-07T14:18:48;10.57;;;9.80;;
52284;SDS011;38238;53.304;6.606;2022-12-07T14:21:25;11.75;;;10.95;;
52284;SDS011;38238;53.304;6.606;2022-12-07T14:26:34;12.43;;;11.43;;
52284;SDS011;38238;53.304;6.606;2022-12-07T14:32:37;14.18;;;13.27;;
52284;SDS011;38238;53.304;6.606;2022-12-07T14:35:01;11.88;;;11.10;;
52284;SDS011;38238;53.304;6.606;2022-12-07T14:37:29;11.63;;;10.73;;
52284;SDS011;38238;53.304;6.606;2022-12-07T14:39:55;9.85;;;8.98;;
52284;SDS011;38238;53.304;6.606;2022-12-07T14:42:22;10.45;;;9.65;;
52284;SDS011;38238;53.304;6.606;2022-12-07T14:44:51;10.45;;;9.65;;
52284;SDS011;38238;53.304;6.606;2022-12-07T14:47:16;13.98;;;13.10;;
52284;SDS011;38238;53.304;6.606;2022-12-07T14:49:42;12.57;;;11.57;;
52284;SDS011;38238;53.304;6.606;2022-12-07T14:52:12;13.05;;;12.20;;
52284;SDS011;38238;53.304;6.606;2022-12-07T14:54:46;13.45;;;12.60;;
52284;SDS011;38238;53.304;6.606;2022-12-07T14:57:12;12.85;;;12.05;;
52284;SDS011;38238;53.304;6.606;2022-12-07T14:59:38;12.88;;;12.07;;
52284;SDS011;38238;53.304;6.606;2022-12-07T15:02:04;14.45;;;13.50;;
52284;SDS011;38238;53.304;6.606;2022-12-07T15:04:30;14.70;;;13.25;;
52284;SDS011;38238;53.304;6.606;2022-12-07T15:06:57;13.23;;;12.02;;
52284;SDS011;38238;53.304;6.606;2022-12-07T15:09:23;16.15;;;14.82;;
52284;SDS011;38238;53.304;6.606;2022-12-07T15:11:49;15.65;;;14.60;;
52284;SDS011;38238;53.304;6.606;2022-12-07T15:14:15;15.23;;;14.23;;
52284;SDS011;38238;53.304;6.606;2022-12-07T15:16:41;15.07;;;14.10;;
52284;SDS011;38238;53.304;6.606;2022-12-07T15:19:15;14.93;;;13.93;;
52284;SDS011;38238;53.304;6.606;2022-12-07T15:21:48;17.02;;;15.88;;
52284;SDS011;38238;53.304;6.606;2022-12-07T15:24:14;15.82;;;14.85;;
52284;SDS011;38238;53.304;6.606;2022-12-07T15:26:40;18.02;;;16.55;;
52284;SDS011;38238;53.304;6.606;2022-12-07T15:29:06;19.40;;;17.90;;
52284;SDS011;38238;53.304;6.606;2022-12-07T15:31:32;19.00;;;17.60;;
52284;SDS011;38238;53.304;6.606;2022-12-07T15:33:58;18.90;;;17.73;;
52284;SDS011;38238;53.304;6.606;2022-12-07T15:36:25;16.83;;;15.77;;
52284;SDS011;38238;53.304;6.606;2022-12-07T15:38:53;15.75;;;14.85;;
52284;SDS011;38238;53.304;6.606;2022-12-07T15:41:19;16.70;;;15.50;;
52284;SDS011;38238;53.304;6.606;2022-12-07T15:43:45;14.68;;;13.48;;
52284;SDS011;38238;53.304;6.606;2022-12-07T15:46:33;14.18;;;13.38;;
52284;SDS011;38238;53.304;6.606;2022-12-07T15:49:01;16.60;;;15.57;;
52284;SDS011;38238;53.304;6.606;2022-12-07T15:51:26;16.40;;;15.30;;
52284;SDS011;38238;53.304;6.606;2022-12-07T15:53:52;17.67;;;16.48;;
52284;SDS011;38238;53.304;6.606;2022-12-07T15:56:19;15.70;;;14.45;;
52284;SDS011;38238;53.304;6.606;2022-12-07T15:58:45;16.00;;;15.00;;
52284;SDS011;38238;53.304;6.606;2022-12-07T16:01:11;17.65;;;16.48;;
52284;SDS011;38238;53.304;6.606;2022-12-07T16:03:42;16.88;;;15.98;;
52284;SDS011;38238;53.304;6.606;2022-12-07T16:06:08;14.13;;;13.05;;
52284;SDS011;38238;53.304;6.606;2022-12-07T16:08:34;13.15;;;12.35;;
52284;SDS011;38238;53.304;6.606;2022-12-07T16:10:59;15.15;;;14.25;;
52284;SDS011;38238;53.304;6.606;2022-12-07T16:13:29;13.55;;;12.55;;
52284;SDS011;38238;53.304;6.606;2022-12-07T16:15:54;14.35;;;13.35;;
52284;SDS011;38238;53.304;6.606;2022-12-07T16:18:20;13.45;;;12.35;;
52284;SDS011;38238;53.304;6.606;2022-12-07T16:20:49;13.15;;;12.13;;
52284;SDS011;38238;53.304;6.606;2022-12-07T16:23:15;13.15;;;12.43;;
52284;SDS011;38238;53.304;6.606;2022-12-07T16:25:40;14.77;;;13.68;;
52284;SDS011;38238;53.304;6.606;2022-12-07T16:28:06;13.02;;;12.27;;
52284;SDS011;38238;53.304;6.606;2022-12-07T16:30:33;11.90;;;11.00;;
52284;SDS011;38238;53.304;6.606;2022-12-07T16:32:59;12.93;;;12.13;;
52284;SDS011;38238;53.304;6.606;2022-12-07T16:35:24;12.93;;;12.10;;
52284;SDS011;38238;53.304;6.606;2022-12-07T16:37:50;12.27;;;11.50;;
52284;SDS011;38238;53.304;6.606;2022-12-07T16:40:16;13.55;;;12.65;;
52284;SDS011;38238;53.304;6.606;2022-12-07T16:42:41;13.68;;;12.68;;
52284;SDS011;38238;53.304;6.606;2022-12-07T16:45:07;11.63;;;10.77;;
52284;SDS011;38238;53.304;6.606;2022-12-07T16:47:36;13.07;;;12.23;;
52284;SDS011;38238;53.304;6.606;2022-12-07T16:50:02;12.05;;;11.32;;
52284;SDS011;38238;53.304;6.606;2022-12-07T16:52:28;13.63;;;12.77;;
52284;SDS011;38238;53.304;6.606;2022-12-07T16:54:54;16.30;;;14.93;;
52284;SDS011;38238;53.304;6.606;2022-12-07T16:57:20;11.45;;;10.60;;